Time;durP1;ratioP1;P1;durP2;ratioP2;P2;SDS_P1;SDS_P2;PMS_P1;PMS_P2;Temp;Humidity;BMP_temperature;BMP_pressure;BME280_temperature;BME280_humidity;BME280_pressure;Samples;Min_cycle;Max_cycle;Signal;HPM_P1;HPM_P2
2023/10/24 00:01:45;;;;;;;9.30;6.40;;;;;;;9.96;89.17;99642.73;105888;1253;60553;-76
2023/10/24 00:04:13;;;;;;;10.50;6.50;;;;;;;9.89;89.34;99641.08;105869;1254;61082;-76
2023/10/24 00:06:40;;;;;;;11.40;5.70;;;;;;;9.81;89.61;99638.55;105971;1254;76115;-76
2023/10/24 00:09:08;;;;;;;7.50;6.30;;;;;;;9.82;89.84;99637.85;105762;1259;69218;-73
2023/10/24 00:11:35;;;;;;;7.60;6.50;;;;;;;9.84;89.68;99641.44;105810;1254;72652;-75
2023/10/24 00:14:03;;;;;;;13.40;8.20;;;;;;;9.77;89.79;99647.45;105753;1253;60470;-77
2023/10/24 00:16:31;;;;;;;10.50;8.10;;;;;;;9.67;89.83;99651.35;105897;1257;60385;-77
2023/10/24 00:18:58;;;;;;;8.70;6.40;;;;;;;9.61;90.43;99652.67;105894;1254;71398;-78
2023/10/24 00:21:26;;;;;;;7.00;6.20;;;;;;;9.67;90.34;99654.61;105825;1258;68912;-77
2023/10/24 00:23:53;;;;;;;7.80;6.90;;;;;;;9.70;90.42;99653.95;105854;1254;72425;-76
2023/10/24 00:26:20;;;;;;;9.40;6.60;;;;;;;9.64;90.28;99653.27;105774;1256;60361;-76
2023/10/24 00:28:49;;;;;;;8.50;6.20;;;;;;;9.58;90.23;99649.81;106385;1257;59731;-76
2023/10/24 00:31:16;;;;;;;7.40;5.50;;;;;;;9.61;90.34;99649.82;106147;1257;74857;-79
2023/10/24 00:34:46;;;;;;;7.20;6.00;;;;;;;9.69;90.38;99649.42;103240;1289;601798;-77
2023/10/24 00:37:12;;;;;;;7.50;6.50;;;;;;;9.63;90.52;99655.36;105385;1267;59398;-74
2023/10/24 00:39:39;;;;;;;7.00;6.20;;;;;;;9.58;90.79;99659.42;105132;1268;59254;-73
2023/10/24 00:42:06;;;;;;;7.50;5.50;;;;;;;9.60;90.57;99658.23;105253;1262;72307;-76
2023/10/24 00:44:33;;;;;;;8.50;6.50;;;;;;;9.64;90.28;99658.41;105387;1265;70446;-76
2023/10/24 00:47:00;;;;;;;7.20;6.30;;;;;;;9.61;90.46;99660.16;105016;1260;192411;-76
2023/10/24 00:49:27;;;;;;;8.10;6.30;;;;;;;9.55;90.62;99661.27;105296;1260;60321;-77
2023/10/24 00:51:54;;;;;;;9.70;6.00;;;;;;;9.53;90.62;99659.23;105260;1264;59456;-74
2023/10/24 00:54:21;;;;;;;10.80;7.10;;;;;;;9.60;90.42;99657.91;105383;1265;72149;-74
2023/10/24 00:56:48;;;;;;;11.70;6.60;;;;;;;9.61;90.49;99661.02;105175;1261;70226;-74
2023/10/24 00:59:15;;;;;;;9.10;6.70;;;;;;;9.55;90.46;99663.44;105231;1266;70910;-74
2023/10/24 01:01:41;;;;;;;7.30;5.80;;;;;;;9.50;90.26;99662.69;105663;1254;59763;-74
2023/10/24 01:04:09;;;;;;;6.40;5.60;;;;;;;9.54;90.45;99662.08;105793;1259;60318;-73
2023/10/24 01:06:36;;;;;;;10.10;6.60;;;;;;;9.58;90.40;99662.18;105881;1261;73124;-73
2023/10/24 01:09:03;;;;;;;8.70;6.40;;;;;;;9.54;90.34;99664.80;105869;1258;70125;-76
2023/10/24 01:11:30;;;;;;;9.30;6.30;;;;;;;9.50;90.56;99667.64;105665;1258;72384;-75
2023/10/24 01:13:59;;;;;;;10.10;6.50;;;;;;;9.54;90.35;99667.81;105780;1254;62107;-74
2023/10/24 01:16:25;;;;;;;7.80;6.40;;;;;;;9.60;89.96;99670.81;105830;1254;60837;-75
2023/10/24 01:18:52;;;;;;;10.40;6.80;;;;;;;9.58;90.01;99668.17;105964;1254;72859;-73
2023/10/24 01:21:19;;;;;;;9.00;6.90;;;;;;;9.52;90.05;99667.23;106015;1261;69984;-75
2023/10/24 01:23:46;;;;;;;7.90;5.90;;;;;;;9.49;89.94;99666.70;106069;1257;59605;-74
2023/10/24 01:26:14;;;;;;;8.60;6.00;;;;;;;9.53;89.98;99668.11;105894;1253;61782;-75
2023/10/24 01:28:40;;;;;;;7.80;6.20;;;;;;;9.50;89.93;99664.69;106075;1259;59787;-73
2023/10/24 01:31:07;;;;;;;9.20;6.00;;;;;;;9.46;90.26;99675.39;105896;1260;71544;-76
2023/10/24 01:33:34;;;;;;;9.30;5.90;;;;;;;9.40;90.25;99677.95;105836;1262;70234;-74
2023/10/24 01:36:01;;;;;;;8.10;6.30;;;;;;;9.42;90.36;99676.50;105779;1258;72550;-74
2023/10/24 01:38:27;;;;;;;6.50;5.30;;;;;;;9.43;89.97;99678.27;105682;1259;60202;-74
2023/10/24 01:40:54;;;;;;;7.10;6.10;;;;;;;9.36;90.17;99677.15;105793;1254;61063;-71
2023/10/24 01:43:21;;;;;;;6.70;5.70;;;;;;;9.27;90.52;99675.94;105683;1260;73113;-74
2023/10/24 01:45:47;;;;;;;7.90;5.80;;;;;;;9.24;90.72;99677.11;105852;1262;70318;-72
2023/10/24 01:48:14;;;;;;;10.00;5.90;;;;;;;9.26;90.30;99678.84;105782;1259;71276;-74
2023/10/24 01:50:41;;;;;;;8.80;6.40;;;;;;;9.22;90.36;99674.46;105769;1259;59662;-74
2023/10/24 01:53:08;;;;;;;6.50;5.80;;;;;;;9.15;90.84;99676.69;105738;1258;59692;-73
2023/10/24 01:55:34;;;;;;;8.20;5.40;;;;;;;9.09;91.01;99675.76;105700;1260;59691;-75
2023/10/24 01:58:01;;;;;;;7.40;5.60;;;;;;;9.10;90.91;99682.30;105646;1259;70239;-76
2023/10/24 02:00:28;;;;;;;6.90;6.20;;;;;;;9.13;90.82;99679.89;105757;1259;72681;-74
2023/10/24 02:02:55;;;;;;;7.70;5.60;;;;;;;9.08;90.62;99683.91;105737;1257;60112;-75
2023/10/24 02:05:22;;;;;;;7.30;6.20;;;;;;;9.00;91.39;99684.21;105799;1259;60158;-77
2023/10/24 02:07:48;;;;;;;9.30;6.20;;;;;;;8.93;91.34;99683.36;105761;1259;59609;-78
2023/10/24 02:10:16;;;;;;;9.10;5.20;;;;;;;8.96;91.30;99686.27;105571;1254;69420;-76
2023/10/24 02:12:43;;;;;;;7.60;6.00;;;;;;;8.96;91.44;99688.17;105624;1260;72709;-73
2023/10/24 02:15:10;;;;;;;8.00;6.20;;;;;;;8.88;91.56;99687.75;105802;1254;60144;-74
2023/10/24 02:17:37;;;;;;;10.60;6.70;;;;;;;8.82;92.04;99694.89;105806;1258;60352;-74
2023/10/24 02:20:04;;;;;;;8.50;6.00;;;;;;;8.77;91.95;99691.55;105656;1255;72955;-74
2023/10/24 02:22:32;;;;;;;7.60;6.10;;;;;;;8.81;92.04;99693.23;105745;1259;70285;-75
2023/10/24 02:24:58;;;;;;;8.10;6.30;;;;;;;8.80;92.04;99693.30;105817;1260;72502;-74
2023/10/24 02:27:25;;;;;;;11.80;8.80;;;;;;;8.72;92.27;99694.67;105778;1255;60236;-75
2023/10/24 02:29:52;;;;;;;13.60;6.70;;;;;;;8.65;92.50;99697.81;105817;1255;60086;-73
2023/10/24 02:32:19;;;;;;;7.80;5.80;;;;;;;8.67;92.59;99700.24;105803;1260;73063;-76
2023/10/24 02:34:49;;;;;;;7.40;6.70;;;;;;;8.70;92.35;99696.52;105758;1269;68724;-74
2023/10/24 02:37:16;;;;;;;10.50;7.30;;;;;;;8.64;92.81;99696.53;105893;1260;71250;-78
2023/10/24 02:39:43;;;;;;;9.60;7.20;;;;;;;8.56;93.00;99693.98;105892;1258;59530;-76
2023/10/24 02:42:09;;;;;;;8.20;6.00;;;;;;;8.52;93.46;99693.06;105745;1258;59597;-76
2023/10/24 02:44:36;;;;;;;10.20;6.90;;;;;;;8.55;93.00;99691.81;105909;1258;59610;-74
2023/10/24 02:47:03;;;;;;;7.70;6.50;;;;;;;8.56;93.32;99692.23;105772;1261;59723;-73
2023/10/24 02:49:32;;;;;;;7.70;7.00;;;;;;;8.49;93.60;99697.52;105785;1254;71707;-75
2023/10/24 02:51:59;;;;;;;10.60;6.60;;;;;;;8.41;93.67;99698.15;105734;1259;61727;-75
2023/10/24 02:54:26;;;;;;;8.30;7.20;;;;;;;8.42;93.76;99692.91;105695;1255;60122;-75
2023/10/24 02:56:53;;;;;;;10.20;7.60;;;;;;;8.43;93.56;99694.06;105783;1259;72220;-74
2023/10/24 02:59:19;;;;;;;11.90;8.50;;;;;;;8.35;94.09;99692.27;105518;1263;59988;-75
2023/10/24 03:01:46;;;;;;;11.50;7.90;;;;;;;8.27;94.51;99691.61;105856;1260;71758;-74
2023/10/24 03:04:13;;;;;;;11.70;8.20;;;;;;;8.29;94.55;99690.36;105678;1258;61860;-77
2023/10/24 03:06:40;;;;;;;10.80;8.10;;;;;;;8.30;94.37;99692.86;105724;1254;60254;-75
2023/10/24 03:09:06;;;;;;;11.00;8.50;;;;;;;8.23;94.75;99695.22;105636;1259;74253;-73
2023/10/24 03:11:33;;;;;;;13.90;10.60;;;;;;;8.16;95.21;99695.77;105788;1254;70188;-74
2023/10/24 03:14:02;;;;;;;10.10;7.90;;;;;;;8.19;95.23;99701.02;105666;1258;72365;-75
2023/10/24 03:16:28;;;;;;;9.20;8.00;;;;;;;8.20;95.26;99701.98;105702;1254;60289;-75
2023/10/24 03:18:56;;;;;;;10.50;8.20;;;;;;;8.14;95.52;99706.49;105755;1257;59491;-76
2023/10/24 03:21:23;;;;;;;10.90;7.80;;;;;;;8.08;95.96;99706.39;105711;1258;72859;-74
2023/10/24 03:23:50;;;;;;;11.80;7.40;;;;;;;8.12;96.12;99706.94;105750;1254;70323;-74
2023/10/24 03:26:17;;;;;;;14.20;10.50;;;;;;;8.13;95.87;99700.98;105749;1254;59673;-76
2023/10/24 03:28:45;;;;;;;11.60;8.80;;;;;;;8.08;96.01;99698.94;105960;1254;60110;-73
2023/10/24 03:31:11;;;;;;;8.30;7.10;;;;;;;8.02;96.34;99698.48;106527;1254;60355;-73
2023/10/24 03:33:38;;;;;;;13.10;7.20;;;;;;;8.06;96.25;99699.33;106447;1260;71606;-75
2023/10/24 03:36:11;;;;;;;9.90;7.30;;;;;;;8.09;96.09;99698.86;105758;1260;59693;-73
2023/10/24 03:38:37;;;;;;;9.70;7.90;;;;;;;8.04;96.44;99699.67;105989;1260;71451;-73
2023/10/24 03:41:04;;;;;;;11.70;8.80;;;;;;;7.99;96.47;99699.17;105717;1258;59682;-75
2023/10/24 03:43:31;;;;;;;8.80;7.10;;;;;;;8.02;96.54;99699.53;105811;1258;61690;-75
2023/10/24 03:45:58;;;;;;;8.10;7.30;;;;;;;8.04;96.25;99704.64;105726;1253;71931;-77
2023/10/24 03:48:24;;;;;;;10.10;7.60;;;;;;;7.99;96.68;99702.48;105750;1255;59680;-70
2023/10/24 03:50:51;;;;;;;9.40;7.40;;;;;;;7.93;96.65;99698.89;105743;1254;60031;-74
2023/10/24 03:53:17;;;;;;;12.50;8.10;;;;;;;7.95;96.68;99695.72;105747;1254;59626;-72
2023/10/24 03:55:44;;;;;;;9.80;8.20;;;;;;;7.97;96.79;99698.85;105832;1254;59482;-74
2023/10/24 03:58:10;;;;;;;9.30;7.80;;;;;;;7.92;96.84;99698.80;105627;1255;73132;-72
2023/10/24 04:00:37;;;;;;;10.80;7.20;;;;;;;7.86;97.01;99699.55;105730;1254;60062;-75
2023/10/24 04:03:04;;;;;;;8.90;7.40;;;;;;;7.89;97.10;99697.90;105717;1254;72628;-73
2023/10/24 04:05:32;;;;;;;10.00;7.60;;;;;;;7.92;96.84;99694.21;105757;1254;59752;-74
2023/10/24 04:07:58;;;;;;;9.80;7.60;;;;;;;7.87;97.03;99697.15;105928;1254;60235;-75
2023/10/24 04:10:25;;;;;;;12.20;8.00;;;;;;;7.81;97.24;99697.82;105692;1260;73026;-74
2023/10/24 04:12:52;;;;;;;10.60;7.80;;;;;;;7.82;97.24;99696.38;105742;1260;70351;-74
2023/10/24 04:15:18;;;;;;;11.20;8.10;;;;;;;7.87;97.03;99697.15;105686;1254;72655;-73
2023/10/24 04:17:45;;;;;;;12.70;8.80;;;;;;;7.83;97.35;99697.21;105689;1254;60915;-75
2023/10/24 04:20:12;;;;;;;11.10;8.10;;;;;;;7.78;97.59;99701.26;105773;1257;59530;-76
2023/10/24 04:22:42;;;;;;;9.80;8.00;;;;;;;7.82;97.23;99701.73;105658;1254;71800;-76
2023/10/24 04:25:09;;;;;;;10.30;8.30;;;;;;;7.85;96.94;99707.24;105673;1255;70294;-76
2023/10/24 04:27:35;;;;;;;11.20;8.90;;;;;;;7.80;97.23;99705.44;105695;1255;72492;-73
2023/10/24 04:30:03;;;;;;;12.30;8.90;;;;;;;7.74;97.74;99709.98;105679;1254;60259;-74
2023/10/24 04:32:30;;;;;;;10.10;8.20;;;;;;;7.73;97.64;99708.45;105791;1254;60442;-73
2023/10/24 04:34:57;;;;;;;9.90;8.30;;;;;;;7.79;97.37;99713.14;105753;1254;72880;-73
2023/10/24 04:37:23;;;;;;;13.30;9.10;;;;;;;7.77;97.36;99716.47;105681;1257;70432;-75
2023/10/24 04:39:50;;;;;;;12.70;8.80;;;;;;;7.72;97.61;99720.20;105650;1257;72367;-73
2023/10/24 04:42:17;;;;;;;10.90;8.10;;;;;;;7.68;97.90;99722.98;105624;1254;61878;-74
2023/10/24 04:44:43;;;;;;;10.10;8.00;;;;;;;7.74;97.50;99722.84;105690;1257;60432;-80
2023/10/24 04:47:10;;;;;;;14.80;9.60;;;;;;;7.74;97.32;99724.92;105657;1257;73760;-75
2023/10/24 04:49:36;;;;;;;11.60;9.50;;;;;;;7.69;97.73;99727.52;105668;1254;60477;-76
2023/10/24 04:52:03;;;;;;;9.60;8.20;;;;;;;7.64;97.83;99723.55;105753;1260;71533;-74
2023/10/24 04:54:31;;;;;;;11.70;8.80;;;;;;;7.71;97.90;99724.64;105818;1254;60985;-75
2023/10/24 04:56:59;;;;;;;18.10;8.90;;;;;;;7.74;97.58;99727.40;106016;1257;60430;-78
2023/10/24 04:59:27;;;;;;;11.20;9.00;;;;;;;7.69;97.76;99726.42;106756;1254;72806;-81
2023/10/24 05:01:54;;;;;;;10.10;9.00;;;;;;;7.65;97.92;99728.41;106298;1254;68873;-78
2023/10/24 05:04:21;;;;;;;16.70;8.70;;;;;;;7.69;97.65;99730.63;107703;1254;72503;-79
2023/10/24 05:06:48;;;;;;;15.10;9.10;;;;;;;7.75;97.70;99733.60;107346;1254;60368;-79
2023/10/24 05:09:16;;;;;;;10.50;9.30;;;;;;;7.74;97.89;99736.40;108239;1254;60288;-79
2023/10/24 05:11:43;;;;;;;10.40;9.10;;;;;;;7.72;97.84;99743.80;107656;1254;72565;-78
2023/10/24 05:14:09;;;;;;;9.90;7.50;;;;;;;7.78;97.95;99740.70;106036;1255;70416;-79
2023/10/24 05:16:37;;;;;;;10.90;8.40;;;;;;;7.83;97.66;99739.33;105891;1254;71171;-81
2023/10/24 05:19:04;;;;;;;13.40;9.60;;;;;;;7.82;98.09;99748.48;106035;1254;60280;-79
2023/10/24 05:21:32;;;;;;;13.40;9.60;;;;;;;7.80;98.19;99745.81;106985;1254;60490;-81
2023/10/24 05:23:59;;;;;;;11.90;9.40;;;;;;;7.87;97.92;99742.84;107308;1254;72574;-81
2023/10/24 05:26:26;;;;;;;13.90;10.00;;;;;;;7.97;97.96;99743.46;106801;1254;69144;-79
2023/10/24 05:28:53;;;;;;;10.60;8.90;;;;;;;7.99;97.65;99747.31;107112;1256;72758;-81
2023/10/24 05:31:21;;;;;;;14.60;9.80;;;;;;;7.98;97.70;99751.45;106887;1257;60535;-79
2023/10/24 05:33:49;;;;;;;12.20;8.70;;;;;;;8.07;97.41;99757.82;106019;1254;60738;-79
2023/10/24 05:36:17;;;;;;;14.50;10.00;;;;;;;8.16;97.12;99763.80;105858;1258;73641;-79
2023/10/24 05:38:44;;;;;;;13.00;10.00;;;;;;;8.18;97.12;99759.95;105932;1254;70220;-79
2023/10/24 05:41:11;;;;;;;17.00;10.00;;;;;;;8.19;97.26;99756.33;105789;1254;72718;-80
2023/10/24 05:43:39;;;;;;;11.80;9.30;;;;;;;8.31;96.72;99756.88;106316;1254;61682;-79
2023/10/24 05:46:05;;;;;;;12.40;9.50;;;;;;;8.40;96.24;99758.45;105938;1259;60409;-79
2023/10/24 05:48:33;;;;;;;14.10;9.40;;;;;;;8.41;96.24;99759.90;105803;1254;75546;-80
2023/10/24 05:51:00;;;;;;;12.80;9.70;;;;;;;8.41;96.09;99762.56;105855;1254;68306;-78
2023/10/24 05:53:26;;;;;;;10.80;8.60;;;;;;;8.47;95.68;99761.34;105760;1259;71380;-79
2023/10/24 05:55:53;;;;;;;11.40;9.00;;;;;;;8.59;95.42;99759.94;105832;1260;60510;-81
2023/10/24 05:58:21;;;;;;;11.30;9.60;;;;;;;8.63;94.95;99761.92;105797;1260;60835;-79
2023/10/24 06:00:47;;;;;;;11.40;9.70;;;;;;;8.65;94.88;99762.83;105865;1260;73634;-80
2023/10/24 06:03:14;;;;;;;11.70;8.90;;;;;;;8.68;94.72;99763.05;106158;1254;70159;-79
2023/10/24 06:05:41;;;;;;;11.70;9.60;;;;;;;8.80;94.21;99759.91;107423;1253;71356;-80
2023/10/24 06:08:08;;;;;;;10.60;9.20;;;;;;;8.86;93.45;99760.02;107378;1255;60470;-80
2023/10/24 06:10:34;;;;;;;13.10;9.70;;;;;;;8.89;93.75;99762.39;106101;1258;60522;-82
2023/10/24 06:13:02;;;;;;;11.90;8.60;;;;;;;8.93;93.42;99762.31;106037;1257;73723;-80
2023/10/24 06:15:29;;;;;;;11.90;8.50;;;;;;;9.07;93.00;99761.95;106074;1254;68814;-81
2023/10/24 06:17:57;;;;;;;11.50;8.50;;;;;;;9.14;92.04;99765.77;105931;1254;73157;-80
2023/10/24 06:20:23;;;;;;;12.20;9.20;;;;;;;9.15;91.98;99763.42;106640;1254;60453;-80
2023/10/24 06:22:50;;;;;;;13.40;8.60;;;;;;;9.18;91.27;99763.80;107043;1254;59881;-78
2023/10/24 06:25:17;;;;;;;9.50;8.50;;;;;;;9.31;90.88;99766.73;107251;1256;60425;-78
2023/10/24 06:27:43;;;;;;;11.20;8.40;;;;;;;9.36;90.40;99769.38;107900;1254;68950;-82
2023/10/24 06:30:11;;;;;;;12.10;8.40;;;;;;;9.38;90.02;99766.14;106156;1254;71172;-80
2023/10/24 06:32:39;;;;;;;10.00;8.50;;;;;;;9.41;89.41;99766.35;106539;1254;61777;-81
2023/10/24 06:35:06;;;;;;;11.90;8.60;;;;;;;9.52;88.86;99765.27;108022;1254;59285;-82
2023/10/24 06:37:33;;;;;;;11.80;9.00;;;;;;;9.61;88.36;99765.52;106860;1254;72636;-81
2023/10/24 06:40:00;;;;;;;11.60;9.30;;;;;;;9.64;88.25;99768.55;106064;1254;70791;-78
2023/10/24 06:42:29;;;;;;;11.90;8.60;;;;;;;9.67;88.24;99764.35;106048;1258;71267;-81
2023/10/24 06:44:57;;;;;;;13.60;8.60;;;;;;;9.77;87.47;99766.84;105917;1254;61949;-80
2023/10/24 06:47:23;;;;;;;9.90;8.60;;;;;;;9.92;86.83;99767.63;105922;1256;60282;-79
2023/10/24 06:49:50;;;;;;;13.40;8.50;;;;;;;9.99;86.30;99768.40;106016;1260;60388;-78
2023/10/24 06:52:16;;;;;;;12.30;8.90;;;;;;;10.03;86.21;99775.38;106142;1254;70102;-80
2023/10/24 06:54:43;;;;;;;11.50;8.40;;;;;;;10.09;85.95;99772.18;105939;1254;60453;-79
2023/10/24 06:57:10;;;;;;;11.90;8.50;;;;;;;10.20;85.28;99770.91;106236;1254;61878;-85
2023/10/24 06:59:36;;;;;;;11.80;8.90;;;;;;;10.35;85.00;99773.27;105846;1254;60467;-80
2023/10/24 07:02:03;;;;;;;12.10;8.70;;;;;;;10.41;84.47;99771.21;105788;1254;73994;-77
2023/10/24 07:04:30;;;;;;;12.80;8.60;;;;;;;10.44;84.09;99769.29;105904;1254;70347;-82
2023/10/24 07:06:57;;;;;;;9.80;8.60;;;;;;;10.46;83.49;99771.61;106203;1254;72678;-83
2023/10/24 07:09:24;;;;;;;9.10;7.10;;;;;;;10.48;83.31;99773.30;106647;1254;61743;-80
2023/10/24 07:11:51;;;;;;;8.90;7.90;;;;;;;10.60;82.89;99768.78;107425;1258;60522;-81
2023/10/24 07:14:18;;;;;;;13.10;9.00;;;;;;;10.70;82.51;99771.56;107226;1254;60561;-83
2023/10/24 07:16:44;;;;;;;9.30;7.60;;;;;;;10.75;82.60;99777.19;106308;1258;69086;-86
2023/10/24 07:19:12;;;;;;;12.60;9.20;;;;;;;10.79;81.66;99778.05;106030;1259;72662;-82
2023/10/24 07:21:39;;;;;;;11.30;8.10;;;;;;;10.83;81.86;99781.01;105924;1254;60540;-83
2023/10/24 07:24:06;;;;;;;9.10;8.20;;;;;;;10.98;81.24;99786.66;106329;1254;60461;-85
2023/10/24 07:26:33;;;;;;;10.10;8.50;;;;;;;11.08;80.64;99786.37;106295;1260;73729;-83
2023/10/24 07:29:02;;;;;;;9.60;8.50;;;;;;;11.11;79.72;99790.88;107834;1254;69117;-83
2023/10/24 07:31:29;;;;;;;13.30;8.80;;;;;;;11.10;79.51;99786.09;107048;1257;70794;-83
2023/10/24 07:33:56;;;;;;;9.20;7.90;;;;;;;11.18;79.63;99784.52;107067;1254;61104;-81
2023/10/24 07:36:23;;;;;;;12.00;8.30;;;;;;;11.37;79.14;99791.45;106829;1254;60429;-81
2023/10/24 07:38:49;;;;;;;8.70;7.50;;;;;;;11.48;78.74;99782.11;107313;1260;72448;-85
2023/10/24 07:41:16;;;;;;;9.50;7.50;;;;;;;11.56;77.87;99785.66;106739;1254;68866;-80
2023/10/24 07:43:44;;;;;;;11.60;8.40;;;;;;;11.64;77.61;99790.05;106152;1254;71559;-83
2023/10/24 07:46:11;;;;;;;12.30;7.60;;;;;;;11.72;76.69;99796.46;106251;1254;61054;-83
2023/10/24 07:48:38;;;;;;;8.90;7.60;;;;;;;11.78;75.89;99795.16;106102;1258;60483;-83
2023/10/24 07:51:05;;;;;;;8.50;7.10;;;;;;;11.90;75.73;99793.52;106093;1254;74237;-80
2023/10/24 07:53:34;;;;;;;7.70;6.60;;;;;;;12.10;75.39;99795.84;105845;1260;68875;-81
2023/10/24 07:56:03;;;;;;;7.50;6.70;;;;;;;12.22;74.48;99796.77;106009;1254;72692;-84
2023/10/24 07:58:30;;;;;;;9.00;6.80;;;;;;;12.29;73.78;99797.20;106203;1259;60578;-84
2023/10/24 08:00:56;;;;;;;9.50;7.00;;;;;;;12.36;73.28;99793.06;106206;1258;61077;-83
2023/10/24 08:03:23;;;;;;;9.20;6.60;;;;;;;12.44;72.78;99792.84;106468;1257;73975;-84
2023/10/24 08:05:51;;;;;;;10.10;6.70;;;;;;;12.52;72.62;99786.98;107922;1254;70194;-84
2023/10/24 08:08:18;;;;;;;7.80;6.90;;;;;;;12.64;72.66;99789.58;106492;1254;72730;-85
2023/10/24 08:10:47;;;;;;;9.60;6.70;;;;;;;12.78;72.67;99789.16;106235;1254;60604;-84
2023/10/24 08:13:14;;;;;;;10.30;7.50;;;;;;;12.94;72.33;99792.97;106194;1258;60514;-83
2023/10/24 08:15:42;;;;;;;7.70;6.60;;;;;;;13.07;70.89;99793.27;106033;1258;72375;-83
2023/10/24 08:18:09;;;;;;;8.30;5.80;;;;;;;13.14;69.48;99799.34;106602;1254;70232;-82
2023/10/24 08:20:36;;;;;;;8.30;6.50;;;;;;;13.15;68.99;99798.96;107482;1254;72774;-81
2023/10/24 08:23:03;;;;;;;9.70;6.60;;;;;;;13.21;69.13;99804.52;107022;1254;60335;-81
2023/10/24 08:25:31;;;;;;;8.10;6.80;;;;;;;13.32;69.06;99807.13;105928;1254;60626;-82
2023/10/24 08:27:58;;;;;;;8.10;7.10;;;;;;;13.45;68.85;99804.55;105980;1258;73572;-82
2023/10/24 08:30:24;;;;;;;10.80;6.90;;;;;;;13.55;68.13;99811.91;105983;1259;68437;-83
2023/10/24 08:32:51;;;;;;;10.70;7.30;;;;;;;13.64;68.02;99812.98;105933;1254;72681;-81
2023/10/24 08:35:18;;;;;;;10.80;7.00;;;;;;;13.73;67.79;99814.72;105829;1256;60566;-82
2023/10/24 08:37:44;;;;;;;9.30;7.40;;;;;;;13.80;67.12;99812.23;105894;1254;60530;-81
2023/10/24 08:40:12;;;;;;;8.70;6.90;;;;;;;13.86;67.31;99806.57;105955;1255;73705;-81
2023/10/24 08:42:39;;;;;;;10.30;7.40;;;;;;;13.97;67.08;99807.28;105841;1254;70178;-81
2023/10/24 08:45:06;;;;;;;10.70;8.80;;;;;;;14.19;67.36;99802.16;106480;1254;71064;-79
2023/10/24 08:47:34;;;;;;;7.00;6.20;;;;;;;14.49;66.57;99804.64;108435;1254;60806;-80
2023/10/24 08:50:01;;;;;;;9.40;6.70;;;;;;;14.73;64.69;99805.36;108515;1254;60377;-81
2023/10/24 08:52:30;;;;;;;7.20;6.40;;;;;;;14.90;64.27;99799.35;107168;1257;72682;-81
2023/10/24 08:55:03;;;;;;;9.90;7.00;;;;;;;15.15;64.16;99791.28;106051;1258;70528;-82
2023/10/24 08:57:34;;;;;;;7.10;6.30;;;;;;;15.55;63.57;99791.54;106650;1254;72655;-81
2023/10/24 09:00:01;;;;;;;7.00;6.10;;;;;;;16.07;62.80;99788.14;107075;1254;59352;-76
2023/10/24 09:02:28;;;;;;;6.10;5.40;;;;;;;16.58;60.22;99786.19;105795;1254;60527;-71
2023/10/24 09:04:55;;;;;;;11.30;6.60;;;;;;;16.98;59.03;99788.55;105930;1256;73591;-70
2023/10/24 09:07:22;;;;;;;6.40;5.50;;;;;;;17.40;57.44;99790.35;105778;1254;70223;-73
2023/10/24 09:09:49;;;;;;;5.50;4.80;;;;;;;17.80;55.88;99793.55;105773;1254;72626;-75
2023/10/24 09:12:16;;;;;;;5.00;4.50;;;;;;;17.93;53.80;99794.64;105803;1255;60447;-74
2023/10/24 09:14:47;;;;;;;5.80;4.70;;;;;;;17.94;53.34;99797.96;105733;1254;60535;-74
2023/10/24 09:17:21;;;;;;;5.10;4.40;;;;;;;18.11;53.25;99800.73;105783;1256;73774;-74
2023/10/24 09:19:48;;;;;;;6.20;5.30;;;;;;;18.42;52.71;99795.26;105968;1254;69141;-79
2023/10/24 09:22:16;;;;;;;5.40;4.90;;;;;;;18.82;52.42;99795.05;106499;1254;72636;-77
2023/10/24 09:24:46;;;;;;;4.90;4.50;;;;;;;19.25;51.16;99790.77;106253;1254;60537;-78
2023/10/24 09:27:16;;;;;;;6.40;4.80;;;;;;;19.62;50.24;99788.24;105952;1254;60432;-76
2023/10/24 09:29:43;;;;;;;6.80;4.30;;;;;;;19.90;49.54;99787.04;106037;1256;72813;-76
2023/10/24 09:32:15;;;;;;;5.90;5.30;;;;;;;20.25;49.20;99777.76;105926;1254;70508;-76
2023/10/24 09:34:43;;;;;;;5.20;4.70;;;;;;;20.85;48.09;99776.09;105975;1254;73946;-77
2023/10/24 09:37:10;;;;;;;4.90;4.40;;;;;;;21.37;46.25;99772.52;106489;1254;60502;-80
2023/10/24 09:39:54;;;;;;;6.60;4.30;;;;;;;21.49;45.78;99767.36;105933;1256;60538;-77
2023/10/24 09:42:25;;;;;;;6.70;4.30;;;;;;;21.61;45.69;99767.06;106003;1258;73920;-80
2023/10/24 09:44:58;;;;;;;7.80;3.90;;;;;;;22.02;45.77;99765.30;105842;1257;69636;-80
2023/10/24 09:47:26;;;;;;;6.40;4.40;;;;;;;22.80;45.22;99760.53;106055;1254;73228;-77
2023/10/24 09:49:53;;;;;;;5.20;4.70;;;;;;;23.74;43.88;99751.15;105869;1254;60436;-80
2023/10/24 09:52:22;;;;;;;4.70;4.20;;;;;;;24.61;42.13;99750.66;106144;1254;60491;-81
2023/10/24 09:54:50;;;;;;;5.00;4.50;;;;;;;25.31;40.95;99745.92;106304;1254;73847;-80
2023/10/24 09:57:19;;;;;;;5.20;4.30;;;;;;;26.00;39.80;99744.85;105932;1254;70405;-81
2023/10/24 09:59:46;;;;;;;5.90;4.50;;;;;;;26.21;38.87;99741.94;107706;1254;73049;-82
2023/10/24 10:02:16;;;;;;;7.10;5.50;;;;;;;25.98;38.74;99738.64;107761;1254;61575;-83
2023/10/24 10:04:43;;;;;;;6.30;5.10;;;;;;;25.50;38.98;99736.87;107118;1254;60294;-81
2023/10/24 10:07:11;;;;;;;5.50;5.00;;;;;;;24.90;39.70;99742.60;106074;1254;72741;-77
2023/10/24 10:09:42;;;;;;;8.10;4.90;;;;;;;24.23;39.96;99745.18;105867;1254;70823;-78
2023/10/24 10:12:13;;;;;;;5.80;4.80;;;;;;;23.52;40.84;99748.84;105934;1258;72556;-79
2023/10/24 10:14:56;;;;;;;6.20;5.20;;;;;;;23.03;41.50;99749.39;105881;1254;60443;-80
2023/10/24 10:17:35;;;;;;;;;;;;;;;22.55;42.18;99755.00;105769;1256;60478;-80
2023/10/24 10:20:07;;;;;;;7.40;5.20;;;;;;;22.07;42.76;99755.98;105902;1258;73545;-81
2023/10/24 10:22:47;;;;;;;5.90;5.20;;;;;;;21.56;43.37;99753.60;105867;1254;70755;-79
2023/10/24 10:25:31;;;;;;;8.20;5.00;;;;;;;21.28;43.84;99752.36;105785;1255;73000;-79
2023/10/24 10:28:00;;;;;;;6.00;4.50;;;;;;;21.26;44.25;99749.41;105907;1256;60415;-81
2023/10/24 10:30:39;;;;;;;8.70;4.40;;;;;;;21.79;43.93;99746.08;106588;1254;60309;-82
2023/10/24 10:33:26;;;;;;;4.80;4.40;;;;;;;22.71;41.94;99745.79;106717;1256;72627;-80
2023/10/24 10:35:56;;;;;;;7.70;5.00;;;;;;;23.34;42.08;99737.06;107215;1258;69162;-83
2023/10/24 10:38:24;;;;;;;5.30;4.80;;;;;;;24.06;40.50;99727.73;106891;1254;71566;-86
2023/10/24 10:40:50;;;;;;;4.50;4.10;;;;;;;24.64;40.19;99723.38;106261;1254;60420;-85
2023/10/24 10:43:30;;;;;;;6.20;5.60;;;;;;;25.45;37.80;99721.89;106094;1253;60296;-82
2023/10/24 10:46:17;;;;;;;7.30;6.70;;;;;;;26.27;36.26;99717.27;106147;1258;73536;-85
2023/10/24 10:48:44;;;;;;;7.70;6.90;;;;;;;27.01;34.99;99712.80;106005;1254;70031;-81
2023/10/24 10:51:22;;;;;;;8.10;7.10;;;;;;;27.48;34.48;99706.74;106135;1254;72579;-82
2023/10/24 10:54:17;;;;;;;5.40;4.90;;;;;;;28.01;33.96;99707.52;105944;1254;61050;-83
2023/10/24 10:56:45;;;;;;;5.60;4.80;;;;;;;28.79;33.31;99708.36;105958;1254;60526;-81
2023/10/24 10:59:37;;;;;;;5.20;4.70;;;;;;;29.56;32.47;99707.77;106065;1254;73774;-84
2023/10/24 11:02:23;;;;;;;6.20;5.60;;;;;;;30.35;31.20;99703.13;106360;1257;70497;-84
2023/10/24 11:04:50;;;;;;;7.90;7.10;;;;;;;30.70;31.02;99698.23;106527;1254;72746;-81
2023/10/24 11:07:17;;;;;;;8.40;6.40;;;;;;;31.04;30.61;99691.16;107886;1254;60413;-83
2023/10/24 11:09:44;;;;;;;6.80;6.30;;;;;;;31.41;30.30;99688.69;107333;1254;60338;-80
2023/10/24 11:12:21;;;;;;;6.10;5.60;;;;;;;31.81;29.88;99681.65;107307;1254;72638;-83
2023/10/24 11:15:14;;;;;;;4.70;4.30;;;;;;;32.06;29.44;99676.40;108193;1253;69245;-82
2023/10/24 11:17:41;;;;;;;5.80;4.90;;;;;;;32.23;29.14;99674.16;107061;1255;71659;-82
2023/10/24 11:20:08;;;;;;;8.10;7.30;;;;;;;32.47;28.83;99668.32;106227;1258;60522;-84
2023/10/24 11:22:48;;;;;;;6.90;5.80;;;;;;;32.86;28.24;99665.93;106407;1258;60160;-84
2023/10/24 11:25:19;;;;;;;5.00;4.60;;;;;;;33.21;27.82;99662.77;106378;1254;73707;-84
2023/10/24 11:27:48;;;;;;;5.30;4.80;;;;;;;33.54;27.73;99660.67;106435;1254;68994;-84
2023/10/24 11:30:14;;;;;;;5.40;4.40;;;;;;;33.80;27.08;99658.48;106278;1254;72701;-84
2023/10/24 11:32:42;;;;;;;5.00;4.50;;;;;;;34.03;27.05;99653.10;106396;1257;60381;-82